Date,TemperatureHighF,TemperatureAvgF,TemperatureLowF,DewpointHighF,DewpointAvgF,DewpointLowF,HumidityHigh,HumidityAvg,HumidityLow,PressureMaxIn,PressureMinIn,WindSpeedMaxMPH,WindSpeedAvgMPH,GustSpeedMaxMPH,PrecipitationSumIn
2013-1-1,54.2,52.0,49.2,52.5,48.7,42.5,100,89,75,30.10,29.87,7,0,7,0.05
2013-1-2,52.2,49.2,43.6,52.2,47.8,41.5,100,95,84,30.13,29.82,14,1,14,0.21
2013-1-3,46.1,41.5,34.9,41.7,38.6,33.3,98,90,74,30.21,30.07,8,0,8,0.02
2013-1-4,53.9,39.4,30.6,35.4,32.3,29.8,100,78,42,30.28,30.16,6,0,6,0.00
2013-1-5,54.1,39.4,28.5,34.2,29.3,25.3,91,70,35,30.35,30.21,7,0,7,0.00
2013-1-6,48.5,44.8,42.2,47.1,42.1,34.2,100,91,73,30.23,30.01,3,0,3,0.08
2013-1-7,56.3,43.7,35.2,44.5,37.7,33.5,100,82,48,30.37,30.11,13,1,13,0.01
2013-1-8,62.4,48.1,36.5,49.7,41.3,33.5,92,78,58,30.38,30.29,8,0,8,0.00
2013-1-9,73.5,55.1,41.9,57.1,49.9,40.3,99,84,52,30.36,30.30,7,0,7,0.00
2013-1-10,72.7,59.2,50.5,54.7,51.7,40.0,98,78,51,30.44,30.34,16,1,16,0.00
2013-1-11,75.8,57.7,49.4,64.5,53.8,39.1,100,88,56,30.35,30.09,9,0,11,0.11
2013-1-12,80.5,65.7,56.7,67.2,61.2,56.3,100,87,57,30.11,30.03,7,0,7,0.00
2013-1-13,77.7,65.3,57.6,63.5,60.1,56.9,100,85,57,30.10,30.00,7,0,7,0.00
2013-1-14,78.6,66.4,57.5,64.4,61.0,56.8,100,84,60,30.11,30.02,8,0,8,0.00
2013-1-15,65.5,59.6,53.9,61.2,57.3,53.0,99,92,79,30.11,29.98,11,1,11,0.00
2013-1-16,74.4,62.0,54.4,66.0,59.2,53.8,100,91,66,29.99,29.88,11,0,11,0.00
2013-1-17,57.2,53.5,40.6,56.9,53.1,40.5,100,99,95,30.03,29.64,24,2,24,0.50
2013-1-18,52.6,40.9,33.8,40.5,32.8,26.2,100,76,40,30.47,30.02,13,1,13,0.00
2013-1-19,62.7,43.8,28.7,42.2,34.0,26.7,95,71,42,30.46,30.12,6,0,6,0.00
2013-1-20,66.0,51.1,42.1,42.3,39.6,34.1,95,69,33,30.12,29.94,7,0,7,0.00
2013-1-21,64.3,49.0,35.0,39.7,35.5,27.7,93,63,35,30.02,29.83,10,0,10,0.00
2013-1-22,49.5,40.4,30.3,31.5,18.9,9.9,63,43,25,30.21,29.92,11,0,11,0.00
2013-1-23,45.7,34.4,25.4,27.8,13.4,2.8,72,43,26,30.34,30.03,9,0,9,0.00
2013-1-24,46.1,38.8,28.4,37.1,22.4,4.4,85,55,27,30.46,29.93,20,2,20,0.00
2013-1-25,31.5,27.6,21.9,27.3,16.7,5.8,92,65,37,30.47,30.08,10,0,10,0.02
2013-1-26,45.4,34.3,28.7,34.4,29.9,27.0,95,85,60,30.33,30.06,12,0,12,0.03
2013-1-27,43.2,33.3,25.6,30.6,28.0,24.0,96,82,59,30.54,30.32,10,0,10,0.00
2013-1-28,58.6,45.9,34.9,50.7,39.9,29.4,93,80,66,30.46,30.20,7,0,7,0.01
2013-1-29,76.1,58.6,44.3,61.2,53.3,43.5,100,84,57,30.21,30.03,8,0,8,0.00
2013-1-30,75.6,68.0,61.8,66.7,63.8,61.2,100,87,67,30.03,29.42,19,2,19,0.00
2013-1-31,71.5,49.9,42.1,66.4,35.7,21.9,99,61,30,30.01,29.42,18,2,18,0.37
2013-2-1,48.8,41.9,29.7,31.5,20.6,5.3,64,45,19,30.33,29.93,13,2,13,0.00
2013-2-2,52.0,37.3,23.9,39.0,20.6,10.4,83,53,25,30.36,29.98,10,1,10,0.00
2013-2-3,55.3,44.1,34.6,39.0,33.1,29.2,96,68,39,29.99,29.81,13,1,13,0.00
2013-2-4,50.8,40.6,29.7,33.7,28.5,24.0,86,64,36,30.10,29.94,6,0,6,0.00
2013-2-5,65.2,51.0,39.3,42.0,37.6,32.0,88,63,34,29.99,29.83,12,0,12,0.00
2013-2-6,67.4,52.3,40.6,48.3,40.3,33.6,100,68,29,30.18,29.91,7,0,7,0.00
2013-2-7,55.1,47.9,41.6,49.4,44.2,33.9,100,87,61,30.20,29.74,18,3,18,0.56
2013-2-8,59.9,50.4,43.9,49.9,45.9,33.5,100,85,60,30.01,29.66,24,2,24,0.40
2013-2-9,58.6,45.4,36.2,34.8,28.5,19.5,81,55,23,30.30,30.01,14,1,14,0.00
2013-2-10,59.6,45.7,30.9,48.6,34.1,23.6,93,67,34,30.42,30.18,12,1,12,0.01
2013-2-11,65.8,60.3,49.8,63.0,59.5,48.2,100,97,89,30.22,29.90,12,1,17,0.27
2013-2-12,64.3,57.1,51.1,57.9,47.8,33.6,100,75,33,30.05,29.88,13,0,13,0.16
2013-2-13,54.1,49.8,47.3,54.1,49.7,47.3,100,99,96,29.91,29.57,10,1,10,0.18
2013-2-14,52.5,45.7,39.3,48.1,39.1,35.6,98,79,55,30.02,29.76,8,0,8,0.00
2013-2-15,63.1,47.0,33.4,41.7,36.9,32.0,100,72,34,30.04,29.87,6,0,6,0.00
2013-2-16,47.4,39.8,33.8,40.5,36.2,33.1,100,88,65,29.89,29.74,12,1,12,0.26
2013-2-17,41.5,34.2,28.4,33.5,20.1,11.5,97,59,31,30.24,29.88,12,2,12,0.00
2013-2-18,53.9,38.3,23.5,29.9,22.5,14.6,92,58,24,30.38,30.23,10,0,10,0.00
2013-2-19,55.1,45.8,33.2,53.9,42.9,29.1,100,90,70,30.23,29.84,13,1,13,0.06
2013-2-20,55.9,44.9,33.7,43.5,31.1,18.4,98,65,24,30.06,29.91,8,0,8,0.00
2013-2-21,57.8,43.7,30.9,35.2,26.5,17.9,82,54,26,30.17,30.03,10,0,10,0.00
2013-2-22,46.2,41.7,39.2,39.6,33.9,26.9,100,76,47,30.23,30.03,13,2,13,0.06
2013-2-23,46.0,42.5,39.2,46.0,42.5,39.2,100,100,100,30.04,29.76,10,0,10,0.76
2013-2-24,64.8,51.5,43.3,50.7,45.3,40.2,100,82,42,29.94,29.75,6,0,6,0.02
2013-2-25,46.0,42.5,38.8,40.6,31.1,26.5,90,64,53,30.12,29.94,14,2,14,0.00
2013-2-26,65.6,49.9,39.2,65.6,48.3,30.0,100,94,63,30.01,29.47,14,2,14,0.98
2013-2-27,60.2,51.1,43.5,51.4,43.3,40.0,99,76,52,29.78,29.59,11,1,11,0.00
2013-2-28,53.5,46.5,38.6,43.0,37.0,30.4,97,71,46,29.80,29.67,10,1,10,0.00
2013-3-1,55.6,43.1,33.5,34.9,31.8,28.5,87,67,38,29.85,29.76,7,0,7,0.00
2013-3-2,47.6,42.8,39.2,36.4,32.6,27.4,81,68,49,29.85,29.77,11,0,11,0.00
2013-3-3,48.0,39.6,30.4,30.9,23.6,20.8,74,54,37,29.92,29.80,9,1,9,0.00
2013-3-4,52.0,40.0,29.0,29.0,20.7,13.9,72,49,22,30.08,29.92,12,1,12,0.00
2013-3-5,62.7,50.7,36.6,52.9,39.9,27.9,86,67,43,30.03,29.51,12,1,12,0.03
2013-3-6,57.3,47.6,40.2,53.1,32.3,23.5,92,57,36,29.98,29.49,12,4,17,0.03
2013-3-7,57.6,45.3,34.6,35.9,31.0,28.5,80,59,35,30.16,29.97,12,1,12,0.00
2013-3-8,57.5,45.7,33.2,32.3,27.7,22.8,77,53,27,30.22,30.08,21,1,21,0.00
2013-3-9,64.8,49.4,36.5,39.1,32.4,28.4,77,55,29,30.26,30.16,11,0,11,0.00
2013-3-10,68.8,52.3,35.6,37.4,29.9,21.3,89,50,17,30.25,30.14,11,1,11,0.00
2013-3-11,71.1,57.3,43.2,56.0,47.1,26.5,96,70,43,30.18,29.85,18,1,18,0.00
2013-3-12,72.5,63.8,56.3,64.0,58.3,37.2,100,84,49,29.87,29.69,13,1,13,0.49
2013-3-13,63.4,52.3,41.2,41.2,32.6,23.8,82,50,25,30.07,29.86,10,1,10,0.00
2013-3-14,54.5,43.9,33.7,31.0,22.7,17.0,64,44,25,30.21,30.05,11,1,11,0.00
2013-3-15,65.5,49.4,32.8,41.2,30.4,20.0,85,53,24,30.15,29.86,11,0,11,0.00
2013-3-16,81.1,66.5,53.1,48.2,43.5,38.5,64,46,26,29.88,29.66,22,1,22,0.00
2013-3-17,78.3,64.3,53.5,56.2,48.8,43.6,75,58,36,30.04,29.79,18,2,18,0.00
2013-3-18,58.6,50.7,45.4,51.1,45.4,40.8,97,82,73,30.08,29.76,14,2,14,0.25
2013-3-19,70.3,54.5,45.1,51.0,42.2,26.1,100,72,21,29.94,29.74,8,1,13,0.00
2013-3-20,55.9,49.3,39.9,35.8,23.7,13.5,70,39,21,30.06,29.70,11,0,11,0.00
2013-3-21,53.1,43.6,37.6,34.1,22.3,11.9,83,47,20,29.92,29.66,16,2,16,0.00
2013-3-22,53.6,41.1,30.3,30.9,19.0,13.1,64,42,24,30.04,29.91,9,0,9,0.00
2013-3-23,53.6,44.9,37.3,44.6,37.4,27.9,94,75,54,30.00,29.83,6,0,6,0.03
2013-3-24,46.4,43.6,40.8,46.4,42.8,40.2,100,97,83,29.87,29.44,11,2,14,0.58
2013-3-25,51.7,43.4,40.5,42.6,37.2,25.4,100,82,39,29.81,29.49,10,1,14,0.01
2013-3-26,49.8,43.3,36.5,32.7,28.5,26.6,70,56,43,30.08,29.81,6,1,8,0.00
2013-3-27,56.2,45.1,32.7,29.7,26.2,21.2,82,50,28,30.17,30.07,13,1,13,0.00
2013-3-28,57.0,45.7,32.9,32.0,26.7,22.5,76,50,27,30.23,30.10,11,1,11,0.00
2013-3-29,62.7,49.8,33.4,37.8,29.2,23.5,86,50,23,30.29,30.13,10,0,10,0.00
2013-3-30,64.7,54.8,47.7,52.7,46.8,36.6,100,77,51,30.19,30.04,10,0,10,0.19
2013-3-31,72.7,61.0,51.3,60.9,53.9,45.0,100,79,52,30.05,29.76,14,1,14,0.12
2013-4-1,73.9,62.9,57.8,60.1,55.2,43.3,100,80,36,29.89,29.76,8,0,8,0.11
2013-4-2,64.5,56.2,46.7,48.8,37.4,28.7,76,51,31,30.09,29.87,13,1,13,0.00
2013-4-3,59.6,53.0,48.8,46.0,33.7,22.8,81,51,27,30.21,30.05,13,1,13,0.00
2013-4-4,49.9,45.7,41.8,45.4,41.7,35.8,100,87,69,30.22,29.80,19,2,19,0.89
2013-4-5,59.8,48.8,41.5,49.2,45.2,41.5,100,88,62,29.97,29.80,12,1,12,0.00
2013-4-6,70.3,55.6,42.8,47.0,41.0,33.5,98,64,28,30.21,29.96,13,2,14,0.00
2013-4-7,76.7,59.4,41.9,55.3,44.1,38.3,90,62,27,30.21,30.05,8,0,8,0.00
2013-4-8,80.9,67.2,53.9,59.5,55.5,51.6,100,70,39,30.13,30.01,12,0,12,0.00
2013-4-9,85.1,71.4,57.2,63.8,59.4,54.7,100,69,42,30.16,30.03,10,0,10,0.00
2013-4-10,87.0,73.3,62.3,64.3,61.2,58.8,96,68,44,30.08,29.92,11,0,11,0.00
2013-4-11,84.5,72.7,62.3,70.9,64.1,60.2,98,77,46,29.96,29.76,14,1,14,0.00
2013-4-12,82.6,72.5,66.8,71.9,68.9,66.1,100,89,68,29.78,29.60,13,1,16,0.28
2013-4-13,76.3,66.0,54.2,67.3,48.0,39.1,94,56,27,29.96,29.70,10,0,11,0.00
2013-4-14,80.9,65.4,50.7,59.4,53.0,42.8,97,68,28,30.03,29.94,11,0,11,0.00
2013-4-15,74.2,67.2,62.7,62.0,59.7,57.2,87,77,64,30.12,29.88,16,1,16,0.01
2013-4-16,77.4,68.1,57.8,63.7,60.2,56.3,98,78,53,30.21,30.11,7,0,7,0.00
2013-4-17,83.0,70.6,57.6,65.9,61.4,55.6,100,75,47,30.19,30.04,10,0,10,0.00
2013-4-18,80.3,70.2,60.7,66.0,62.4,58.3,97,78,52,30.12,29.99,19,1,19,0.00
2013-4-19,84.1,73.1,66.4,71.1,67.9,64.7,100,85,57,30.00,29.73,17,1,17,0.67
2013-4-20,66.4,55.9,48.6,66.4,48.3,37.6,100,78,49,30.20,29.80,12,0,12,0.28
2013-4-21,69.1,53.5,42.9,47.8,43.4,39.9,95,72,38,30.37,30.20,18,2,18,0.00
2013-4-22,65.0,53.6,42.3,47.7,42.8,36.6,82,67,51,30.36,30.14,18,3,18,0.00
2013-4-23,67.1,57.0,49.8,55.6,50.8,46.8,96,81,58,30.17,30.06,16,1,16,0.00
2013-4-24,79.2,64.5,52.2,61.6,55.0,50.5,99,75,41,30.11,29.95,10,0,10,0.00
2013-4-25,74.9,66.7,60.1,59.6,56.0,51.3,87,69,47,30.20,29.98,12,1,12,0.00
2013-4-26,74.9,62.6,51.3,56.3,49.6,42.5,95,66,34,30.36,30.20,11,0,11,0.00
2013-4-27,75.3,63.6,55.6,56.3,50.3,40.0,84,64,34,30.32,30.20,10,0,10,0.00
2013-4-28,71.1,63.6,57.5,61.7,55.0,48.6,98,74,59,30.22,30.01,14,1,14,0.26
2013-4-29,72.1,64.8,61.3,69.0,63.7,61.0,100,97,76,30.02,29.90,6,0,6,0.96
2013-4-30,76.0,66.8,61.6,65.5,62.7,58.6,100,88,65,30.07,29.92,14,1,14,0.00
2013-5-1,68.4,63.2,59.2,61.5,59.1,56.6,98,87,75,30.18,30.06,18,2,18,0.02
2013-5-2,67.6,62.7,59.0,63.7,60.2,55.7,99,92,78,30.21,30.13,17,2,17,0.03
2013-5-3,68.9,61.2,55.0,61.7,53.4,44.7,95,77,52,30.15,30.04,17,2,17,0.02
2013-5-4,68.3,58.4,51.3,56.1,51.6,46.2,96,79,64,30.08,29.93,17,4,17,0.00
2013-5-5,65.6,59.9,54.2,65.0,57.0,50.7,100,90,76,29.96,29.83,19,3,19,0.13
2013-5-6,75.1,65.9,59.8,66.3,59.1,49.4,100,81,43,29.85,29.73,20,1,20,0.34
2013-5-7,69.8,62.0,55.0,56.3,53.8,48.6,93,76,52,29.89,29.80,10,0,10,0.00
2013-5-8,77.0,65.8,54.8,64.7,57.0,53.6,99,76,48,29.94,29.87,12,0,12,0.04
2013-5-9,81.6,70.3,59.0,62.8,59.9,56.0,100,73,43,30.01,29.91,2,0,7,0.00
2013-5-10,88.8,74.5,62.0,66.3,62.1,58.5,97,69,37,30.01,29.90,10,0,10,0.00
2013-5-11,84.0,76.0,67.9,68.6,64.2,60.6,90,68,48,29.93,29.75,16,0,16,0.00
2013-5-12,79.9,72.7,64.5,66.1,56.7,43.7,89,60,36,29.94,29.74,9,0,9,0.00
2013-5-13,71.3,62.5,54.2,46.7,40.1,34.0,71,45,27,30.08,29.93,14,0,14,0.00
2013-5-14,72.7,61.2,46.7,48.6,41.5,35.5,87,52,27,30.20,30.05,9,0,9,0.00
2013-5-15,86.3,72.6,58.3,63.2,57.0,48.6,79,60,41,30.06,29.87,11,0,12,0.00
2013-5-16,89.5,76.4,65.8,66.6,62.3,55.8,87,64,33,29.94,29.86,8,0,8,0.00
2013-5-17,89.3,77.5,66.6,66.7,63.3,57.5,93,65,36,30.02,29.93,7,0,7,0.00
2013-5-18,85.5,75.9,67.3,69.1,65.4,61.9,85,71,49,30.09,30.00,10,0,10,0.00
2013-5-19,79.0,72.2,69.4,71.8,69.2,66.7,100,91,70,30.08,29.99,11,0,11,0.25
2013-5-20,73.2,70.3,68.3,72.7,69.6,68.3,100,98,86,30.07,29.98,8,0,8,0.69
2013-5-21,80.5,72.6,69.9,74.5,71.2,69.5,100,96,74,30.00,29.91,7,0,7,1.21
2013-5-22,84.3,73.6,68.3,74.1,69.8,68.2,100,89,60,29.97,29.86,10,0,10,0.08
2013-5-23,85.1,73.6,69.8,73.1,70.4,66.9,100,91,57,29.91,29.77,8,0,8,0.47
2013-5-24,76.5,69.0,58.7,70.1,60.6,46.8,100,78,39,30.11,29.74,11,0,11,0.01
2013-5-25,73.9,62.8,48.3,52.1,45.1,37.7,89,55,27,30.24,30.08,7,0,7,0.00
2013-5-26,73.2,64.7,57.8,54.0,49.5,43.9,79,59,36,30.22,30.09,8,0,8,0.00
2013-5-27,83.0,68.5,54.7,62.9,55.2,48.4,91,66,32,30.21,30.10,9,0,9,0.00
2013-5-28,84.3,73.7,62.6,68.6,64.3,60.3,99,74,54,30.20,30.10,13,0,13,0.00
2013-5-29,84.5,75.0,64.8,68.2,65.6,62.6,98,74,55,30.20,30.12,8,0,8,0.00
2013-5-30,86.7,75.8,63.4,70.5,66.6,60.8,100,75,53,30.22,30.10,8,0,8,0.00
2013-5-31,89.0,76.2,66.9,75.8,68.8,63.9,100,80,49,30.17,30.05,8,0,8,0.03
2013-6-1,87.6,77.2,69.9,71.7,69.0,65.7,99,78,50,30.10,29.99,6,0,10,0.00
2013-6-2,88.6,77.1,69.1,73.8,69.9,66.9,99,80,49,30.03,29.86,16,0,16,0.01
2013-6-3,75.1,72.7,68.8,75.1,72.3,68.8,100,99,89,29.91,29.78,5,0,12,3.63
2013-6-4,82.8,75.1,67.1,73.2,70.3,67.1,100,87,66,30.01,29.85,12,1,12,0.00
2013-6-5,83.2,75.1,69.1,72.2,68.3,65.6,93,80,61,30.04,29.92,16,1,16,0.00
2013-6-6,80.3,73.6,69.4,76.4,72.1,67.8,100,95,81,29.95,29.76,13,1,13,0.34
2013-6-7,76.5,73.4,69.6,75.8,72.6,69.6,100,97,87,29.79,29.38,16,1,16,1.02
2013-6-8,83.6,76.0,69.6,74.7,72.1,69.6,100,89,67,30.02,29.76,8,0,8,0.33
2013-6-9,86.5,77.8,72.3,77.7,74.4,70.5,100,90,68,30.09,30.00,8,0,8,0.05
2013-6-10,85.3,75.5,70.8,78.0,74.1,70.8,100,96,73,30.05,29.90,11,0,11,1.96
2013-6-11,85.7,76.1,70.3,76.0,71.5,68.6,100,87,63,29.92,29.83,10,0,10,0.00
2013-6-12,90.7,79.8,67.9,76.7,71.8,67.0,100,78,52,29.92,29.81,7,0,7,0.00
2013-6-13,96.6,83.7,71.8,77.3,73.0,62.0,100,73,42,29.81,29.57,16,0,16,0.94
2013-6-14,83.2,73.7,64.8,71.8,64.5,58.2,100,76,45,29.94,29.66,11,0,11,0.00
2013-6-15,86.3,74.3,62.7,65.1,61.2,56.9,97,67,42,30.06,29.94,5,0,5,0.00
2013-6-16,86.7,76.6,66.0,68.5,64.8,59.6,90,68,48,30.10,29.97,8,0,8,0.00
2013-6-17,86.5,76.4,70.1,77.2,69.9,65.9,100,81,59,30.00,29.88,10,0,10,1.01
2013-6-18,84.7,75.0,70.1,77.7,73.1,70.1,100,94,71,29.93,29.73,10,0,10,0.38
2013-6-19,79.0,73.2,67.9,73.2,70.4,67.9,100,92,71,30.03,29.80,13,0,13,0.12
2013-6-20,85.5,75.2,65.6,69.4,65.4,62.1,96,74,47,30.14,30.02,16,1,16,0.00
2013-6-21,84.9,74.6,62.6,70.6,64.0,58.8,92,71,50,30.16,30.08,11,1,13,0.00
2013-6-22,81.8,76.0,71.8,74.7,72.3,69.7,99,89,77,30.10,30.03,7,0,7,0.02
2013-6-23,89.0,79.5,73.9,76.0,73.7,69.5,98,84,57,30.14,30.05,11,0,11,0.00
2013-6-24,84.7,76.8,71.8,77.4,74.5,71.3,100,93,76,30.15,30.03,6,0,6,0.24
2013-6-25,88.8,76.2,70.9,77.2,73.5,69.6,100,92,64,30.08,29.97,10,0,10,0.37
2013-6-26,89.3,78.4,69.4,77.8,73.6,69.0,100,86,64,29.98,29.85,11,0,11,1.14
2013-6-27,90.3,77.8,69.1,79.1,73.9,69.1,100,89,61,29.90,29.67,13,0,13,0.06
2013-6-28,89.0,80.4,72.5,80.3,75.7,72.5,100,87,64,29.73,29.54,8,0,8,0.70
2013-6-29,84.5,80.1,76.1,78.2,74.4,71.9,93,83,69,29.69,29.55,11,0,11,0.00
2013-6-30,82.8,77.1,73.9,77.9,75.2,73.3,100,94,77,29.80,29.66,10,0,11,0.31
2013-7-1,80.7,74.5,71.6,77.7,74.2,71.6,100,99,86,29.95,29.77,13,0,13,0.77
2013-7-2,77.2,74.2,72.0,77.2,74.2,72.0,100,100,96,30.11,29.95,8,0,8,0.38
2013-7-3,83.2,76.6,74.2,79.4,75.9,73.9,100,98,82,30.17,30.09,8,0,8,0.27
2013-7-4,88.8,79.3,73.9,77.2,74.4,70.2,100,87,55,30.20,30.12,3,1,21,0.00
2013-7-5,87.8,78.2,72.7,79.8,75.0,71.8,100,91,66,30.20,30.11,1,0,10,0.58
2013-7-6,88.0,78.8,72.1,78.4,73.1,70.7,100,84,61,30.18,30.07,1,0,12,0.04
2013-7-7,90.1,80.1,70.8,76.3,73.3,69.3,100,81,61,30.14,30.01,1,0,10,0.00
2013-7-8,87.6,78.4,74.2,78.1,75.3,72.4,100,91,71,30.12,30.03,1,0,8,0.10
2013-7-9,84.1,77.7,73.7,80.1,76.4,73.7,100,96,78,30.11,30.00,8,0,8,0.60
2013-7-10,88.4,79.6,73.7,76.9,74.5,72.1,100,86,62,30.06,29.90,10,0,10,0.02
2013-7-11,88.8,79.3,73.0,77.1,74.4,72.2,100,86,61,29.92,29.81,12,0,12,0.45
2013-7-12,79.9,74.4,72.1,75.9,73.7,72.1,100,98,83,29.91,29.80,8,0,9,0.13
2013-7-13,76.3,73.7,72.0,76.3,73.6,71.5,100,100,98,30.07,29.91,16,1,16,0.63
2013-7-14,89.0,78.8,71.5,80.5,74.2,71.5,100,87,64,30.20,30.06,16,1,16,0.03
2013-7-15,91.0,80.6,73.2,77.6,74.5,72.3,100,83,56,30.23,30.16,3,0,11,0.00
2013-7-16,92.5,82.7,72.7,77.7,74.6,70.9,100,78,55,30.22,30.11,4,0,4,0.00
2013-7-17,90.1,81.2,75.6,80.7,76.4,73.6,100,86,65,30.15,30.03,8,0,8,0.11
2013-7-18,91.0,82.3,75.8,78.3,75.4,71.8,100,81,55,30.09,29.98,6,0,6,0.00
2013-7-19,91.4,82.4,75.3,76.8,74.7,71.9,97,79,56,30.06,29.93,8,0,8,0.00
2013-7-20,88.0,80.7,75.6,76.2,74.3,71.7,95,82,63,30.00,29.88,10,0,10,0.00
2013-7-21,88.4,79.6,74.9,78.1,75.5,73.2,98,88,69,29.96,29.85,8,0,8,0.00
2013-7-22,87.4,80.7,75.1,77.7,75.3,73.2,97,84,67,29.90,29.78,8,0,8,0.00
2013-7-23,88.4,81.6,75.6,77.1,75.0,73.4,94,81,63,29.82,29.67,8,0,10,0.00
2013-7-24,88.8,79.8,74.4,78.3,74.2,69.6,98,84,61,29.76,29.68,7,0,12,0.00
2013-7-25,84.0,77.6,72.3,74.1,71.5,69.2,95,82,67,29.94,29.71,11,0,11,0.00
2013-7-26,89.3,78.2,69.3,72.7,69.4,65.8,95,76,47,30.02,29.94,8,0,8,0.00
2013-7-27,88.0,77.8,70.3,74.9,72.0,67.6,100,83,57,29.99,29.86,10,0,10,0.05
2013-7-28,85.5,77.3,72.7,79.4,74.4,71.9,100,91,69,29.95,29.84,4,0,4,0.28
2013-7-29,88.6,78.1,71.8,78.5,75.1,71.7,100,91,66,30.09,29.94,14,0,14,0.53
2013-7-30,86.7,77.8,69.4,76.0,71.9,67.9,100,84,55,30.13,30.05,10,0,10,0.00
2013-7-31,84.5,78.5,72.7,76.2,73.5,69.7,98,85,67,30.08,29.94,6,0,10,0.00
2013-8-1,82.6,77.4,73.5,78.6,74.3,70.5,100,90,79,29.96,29.81,6,0,6,0.04
2013-8-2,87.2,80.0,74.4,78.4,75.8,73.8,100,88,71,29.97,29.85,0,0,0,0.00
2013-8-3,89.3,81.0,75.4,80.1,76.5,74.2,98,87,65,29.97,29.84,0,0,0,0.04
2013-8-4,89.0,79.4,73.2,76.8,72.7,67.6,100,81,59,29.95,29.83,13,0,13,0.00
2013-8-5,88.4,77.2,68.1,68.1,66.0,61.3,95,70,44,30.00,29.92,10,0,10,0.00
2013-8-6,74.6,71.1,69.6,67.5,65.9,65.2,90,84,73,29.98,29.92,0,0,0,0.00
2013-8-7,85.9,77.7,69.6,73.0,70.3,67.4,95,79,58,30.03,29.95,3,0,11,0.00
2013-8-8,90.3,80.7,71.5,76.8,73.2,69.8,99,79,56,30.00,29.92,1,0,7,0.00
2013-8-9,91.4,84.5,76.8,77.7,76.1,73.7,98,77,59,30.02,29.94,9,0,9,0.00
2013-8-10,95.4,84.6,76.7,78.5,75.4,72.3,96,75,55,30.04,29.95,10,0,10,0.00
2013-8-11,95.4,84.4,75.8,77.9,75.2,72.5,97,75,52,30.05,29.94,7,0,7,0.00
2013-8-12,95.6,85.9,77.7,77.7,75.1,71.8,94,72,50,29.98,29.86,1,0,1,0.00
2013-8-13,94.3,82.2,75.4,81.6,77.3,73.9,100,87,55,29.89,29.72,10,0,11,2.07
2013-8-14,76.1,73.4,69.6,76.1,70.5,65.2,100,91,79,29.99,29.75,12,1,12,2.07
2013-8-15,73.0,70.0,67.6,66.2,64.1,61.6,89,81,72,30.02,29.98,6,0,6,0.24
2013-8-16,70.6,67.5,65.6,67.5,66.3,64.9,100,96,85,30.08,29.99,2,0,8,0.53
2013-8-17,75.3,71.0,65.3,75.3,71.0,65.3,100,100,100,30.08,30.01,2,0,10,0.09
2013-8-18,84.9,79.0,70.3,76.0,74.0,70.3,100,85,66,30.14,30.04,3,0,3,0.09
2013-8-19,77.4,72.5,71.1,75.9,72.5,71.1,100,100,92,30.10,30.01,6,0,10,1.76
2013-8-20,84.3,77.8,72.3,78.6,75.3,72.3,100,93,76,30.11,30.03,13,0,13,0.90
2013-8-21,84.3,74.8,70.9,79.7,74.3,70.9,100,98,84,30.16,30.04,8,0,8,0.35
2013-8-22,83.0,74.9,70.6,79.9,74.3,70.6,100,98,83,30.09,29.94,7,0,7,1.36
2013-8-23,88.6,77.4,70.4,78.5,73.8,70.4,100,89,63,29.97,29.85,1,0,1,0.01
2013-8-24,84.7,76.2,70.3,72.7,67.7,62.7,95,76,51,30.20,29.97,14,1,14,0.00
2013-8-25,82.4,72.6,65.5,67.0,63.1,57.2,96,74,45,30.30,30.20,18,1,18,0.00
2013-8-26,83.6,72.3,62.1,66.3,63.3,60.7,96,75,50,30.24,30.05,7,0,7,0.00
2013-8-27,88.0,75.3,64.0,73.7,67.9,61.2,94,79,57,30.07,29.90,6,0,6,0.00
2013-8-28,87.8,78.9,70.8,78.4,74.1,69.4,98,86,64,29.94,29.83,3,0,3,0.00
2013-8-29,90.1,80.1,74.4,80.7,74.4,70.8,96,83,66,29.91,29.80,11,0,11,0.01
2013-8-30,85.9,76.6,69.8,73.0,70.5,67.5,97,83,58,29.99,29.88,8,0,8,0.00
2013-8-31,90.7,78.9,69.8,75.5,72.2,68.3,100,82,53,29.92,29.81,7,0,7,0.00
2013-9-1,89.0,81.0,75.1,79.5,76.0,73.7,99,86,64,29.86,29.74,7,0,7,0.00
2013-9-2,88.0,82.6,73.3,79.1,76.6,73.2,100,83,69,29.83,29.73,7,0,7,0.10
2013-9-3,89.7,78.5,72.8,78.6,73.4,69.0,98,85,62,29.87,29.74,17,0,17,0.00
2013-9-4,89.9,79.1,69.3,77.5,72.9,68.4,99,82,59,30.00,29.86,8,0,8,0.00
2013-9-5,89.7,80.0,74.6,80.8,72.4,64.9,99,80,50,30.02,29.94,7,0,7,0.00
2013-9-6,87.6,76.0,67.8,69.7,66.6,63.1,90,74,51,30.07,29.97,13,1,13,0.00
2013-9-7,85.5,74.2,65.5,67.6,64.2,55.6,93,73,37,30.05,29.91,6,0,7,0.00
2013-9-8,88.6,75.9,66.1,72.1,67.6,63.6,98,78,49,29.92,29.82,6,0,6,0.00
2013-9-9,89.7,77.8,67.1,74.1,69.7,64.7,95,78,51,30.09,29.91,10,0,10,0.00
2013-9-10,90.7,78.5,69.1,74.4,70.3,67.0,99,78,48,30.17,30.08,6,0,7,0.00
2013-9-11,88.2,77.5,67.9,74.5,69.5,61.2,98,78,42,30.15,30.01,8,0,8,0.00
2013-9-12,90.5,80.7,70.6,73.4,71.1,68.7,98,74,50,30.02,29.75,8,0,8,0.00
2013-9-13,88.2,78.9,73.0,72.2,67.7,59.4,93,71,46,29.78,29.68,8,0,8,0.00
2013-9-14,79.6,72.3,65.8,63.0,58.7,53.7,75,63,48,30.05,29.78,14,1,14,0.00
2013-9-15,84.7,72.8,63.1,70.4,64.7,58.3,92,77,54,30.15,30.04,9,0,9,0.00
2013-9-16,85.9,76.5,68.4,75.7,70.0,64.9,100,82,61,30.08,29.95,8,0,8,0.00
2013-9-17,79.9,71.7,65.0,66.0,59.3,53.0,83,66,41,30.22,30.08,16,2,16,0.00
2013-9-18,77.7,66.6,56.3,58.5,55.5,52.4,90,69,43,30.22,30.08,10,1,10,0.00
2013-9-19,80.5,67.7,57.3,65.6,58.4,54.4,92,74,47,30.12,30.02,8,0,8,0.00
2013-9-20,76.8,70.1,65.3,68.7,65.5,61.8,94,86,72,30.03,29.89,3,0,10,0.00
2013-9-21,82.8,73.4,67.6,73.3,69.4,65.7,98,88,64,29.89,29.65,1,0,8,0.02
2013-9-22,74.7,70.2,65.6,72.4,66.9,64.1,100,90,72,29.82,29.56,13,1,13,0.41
2013-9-23,76.1,66.4,59.3,64.4,59.7,56.7,97,80,54,30.00,29.82,10,0,10,0.00
2013-9-24,78.1,65.3,54.4,62.4,57.8,52.7,98,79,49,30.03,29.88,10,0,10,0.00
2013-9-25,73.9,64.4,55.9,64.4,59.9,54.3,100,86,61,29.89,29.79,12,0,12,0.05
2013-9-26,78.1,68.3,62.9,65.0,60.9,51.5,100,80,42,29.93,29.79,13,1,13,0.12
2013-9-27,77.6,66.8,59.9,63.0,59.1,56.3,95,78,51,30.09,29.93,17,1,17,0.00
2013-9-28,75.3,65.5,57.8,60.4,57.9,55.4,93,78,56,30.14,30.06,15,1,15,0.00
2013-9-29,74.4,64.7,56.6,60.1,57.1,53.4,99,78,50,30.08,29.95,10,0,10,0.00
2013-9-30,76.3,64.3,58.1,61.5,58.1,54.9,97,82,53,30.02,29.93,10,0,10,0.00
2013-10-1,82.0,72.8,54.2,64.7,61.2,52.2,100,69,45,30.07,29.96,10,0,10,0.00
2013-10-2,87.6,72.1,60.9,66.0,62.3,59.1,97,74,39,30.07,29.97,6,0,6,0.00
2013-10-3,87.4,73.2,62.1,66.9,63.7,59.7,98,75,42,30.08,30.00,6,0,10,0.00
2013-10-4,84.7,73.9,65.2,70.6,66.5,63.0,100,80,51,30.08,29.99,5,0,5,0.00
2013-10-5,87.0,75.3,65.6,70.1,67.1,63.4,100,78,47,30.06,29.96,8,0,8,0.00
2013-10-6,85.1,75.0,67.4,74.1,70.8,66.2,100,88,65,30.00,29.86,12,0,12,0.00
2013-10-7,75.4,73.2,71.6,74.6,72.6,71.2,100,98,93,29.87,29.77,7,0,7,0.14
2013-10-8,71.8,61.1,57.0,71.8,57.6,53.2,100,88,74,30.08,29.84,21,3,21,0.03
2013-10-9,66.0,61.0,57.8,61.2,57.3,54.0,97,88,78,30.05,29.97,16,2,16,0.00
2013-10-10,63.9,60.6,57.0,61.8,58.1,54.7,96,91,85,29.97,29.87,10,0,10,0.00
2013-10-11,73.2,67.1,62.4,65.1,62.8,60.5,97,86,71,29.90,29.83,6,0,6,0.00
2013-10-12,72.1,65.8,62.3,65.5,63.3,61.4,99,92,77,29.97,29.87,8,0,8,0.00
2013-10-13,70.4,67.4,65.2,67.8,66.1,65.1,100,96,89,30.08,29.98,3,0,11,0.02
2013-10-14,68.8,66.1,62.7,66.1,64.3,60.7,100,94,85,30.12,30.05,13,2,13,0.02
2013-10-15,72.3,64.7,56.7,64.8,61.2,56.3,100,89,72,30.09,29.96,12,1,12,0.00
2013-10-16,69.8,66.6,62.9,65.4,63.9,61.8,97,91,82,29.98,29.90,5,0,6,0.00
2013-10-17,78.6,69.4,60.5,68.2,64.5,60.1,100,86,64,29.91,29.79,7,0,7,0.00
2013-10-18,71.5,65.7,62.3,68.3,61.7,55.2,99,87,69,29.95,29.82,11,0,11,0.00
2013-10-19,71.5,65.1,61.2,69.4,63.9,59.7,100,96,81,29.89,29.78,4,0,4,0.26
2013-10-20,67.1,60.7,52.9,62.0,53.7,46.6,98,79,50,30.04,29.84,13,0,13,0.00
2013-10-21,67.9,57.3,47.3,57.5,51.7,45.5,97,83,54,30.08,29.93,7,0,7,0.00
2013-10-22,66.8,62.5,56.9,62.5,60.6,55.0,97,93,82,29.95,29.76,2,0,3,0.00
2013-10-23,69.4,62.2,52.2,60.5,51.6,36.6,100,72,36,29.95,29.64,10,0,10,0.00
2013-10-24,60.5,51.1,41.8,44.9,38.2,32.7,84,63,36,30.12,29.96,10,0,10,0.00
2013-10-25,57.0,50.4,40.6,44.6,36.7,29.7,84,61,36,30.30,30.09,13,1,13,0.00
2013-10-26,60.2,47.0,33.8,39.9,34.2,28.6,92,65,30,30.29,30.05,6,0,6,0.00
2013-10-27,67.3,54.1,42.8,50.3,44.1,38.3,90,71,43,30.07,29.98,7,0,8,0.00
2013-10-28,68.6,58.1,48.8,61.1,54.7,46.3,100,89,72,30.20,30.06,3,0,6,0.00
2013-10-29,73.2,60.6,50.1,59.2,54.9,49.1,100,84,49,30.25,30.17,5,0,6,0.00
2013-10-30,75.6,64.0,53.1,62.3,57.5,52.1,100,82,53,30.25,30.10,3,0,6,0.00
2013-10-31,76.1,68.9,56.2,68.9,64.8,55.2,100,87,52,30.13,29.88,5,0,13,0.09
2013-11-1,78.1,70.8,66.9,69.3,67.8,65.6,100,91,66,29.87,29.63,7,0,12,0.33
2013-11-2,72.7,63.0,53.5,66.9,57.1,48.4,100,83,48,29.88,29.64,4,0,5,0.01
2013-11-3,64.2,53.9,46.7,48.9,43.2,39.4,85,69,41,30.27,29.88,12,0,12,0.00
2013-11-4,59.5,49.4,40.9,41.8,37.7,33.9,90,66,40,30.44,30.27,14,1,14,0.00
2013-11-5,63.2,51.4,42.6,54.2,45.9,37.2,90,82,71,30.43,30.33,11,1,11,0.00
2013-11-6,73.5,61.7,51.3,64.5,56.8,49.9,99,85,66,30.33,30.05,3,1,14,0.01
2013-11-7,71.1,60.3,51.0,66.8,54.6,38.8,100,82,59,30.04,29.85,7,0,8,0.22
2013-11-8,58.4,49.2,39.1,40.7,35.2,28.8,87,61,33,30.26,30.02,10,0,13,0.00
2013-11-9,60.5,47.6,34.1,44.4,37.5,31.8,95,71,37,30.32,30.15,5,0,5,0.00
2013-11-10,69.3,55.3,44.1,46.8,42.1,36.4,90,64,30,30.17,30.02,5,0,5,0.00
2013-11-11,60.1,50.2,41.1,41.0,36.2,31.7,87,60,35,30.27,30.09,12,0,12,0.00
2013-11-12,64.3,47.6,36.8,43.5,37.1,30.0,97,71,34,30.33,29.96,20,1,20,0.01
2013-11-13,45.7,37.3,30.4,32.8,24.9,19.2,85,62,35,30.46,30.31,15,0,15,0.02
2013-11-14,55.0,39.3,26.9,30.7,25.4,20.0,91,62,27,30.45,30.29,7,0,7,0.00
2013-11-15,66.4,50.7,33.2,56.4,44.2,28.9,95,79,62,30.29,30.13,10,0,10,0.00
2013-11-16,71.1,61.5,56.9,61.4,58.5,55.2,100,90,65,30.18,30.10,8,0,8,0.00
2013-11-17,74.0,63.4,55.3,68.6,61.5,54.2,100,94,77,30.13,29.87,7,0,7,0.03
2013-11-18,77.6,69.3,57.5,71.0,62.0,38.0,100,80,47,29.87,29.72,12,0,12,0.00
2013-11-19,59.0,53.3,46.5,39.0,33.6,28.6,65,48,32,30.13,29.87,14,1,14,0.01
2013-11-20,56.6,52.2,41.2,42.6,39.7,32.5,73,63,56,30.32,30.26,16,2,16,0.00
2013-11-21,66.6,59.2,47.3,56.5,52.0,40.6,89,78,67,30.36,30.28,8,1,8,0.00
2013-11-22,70.9,62.4,56.3,65.7,59.5,53.8,98,91,75,30.31,30.07,6,0,6,0.00
2013-11-23,65.0,58.7,48.6,64.1,51.7,30.3,100,79,49,30.08,29.96,11,0,11,0.08
2013-11-24,48.3,38.0,29.0,29.5,15.7,5.1,55,41,23,30.49,30.08,16,1,17,0.00
2013-11-25,42.8,32.8,24.4,20.6,15.4,9.3,69,50,25,30.54,30.30,10,0,10,0.00
2013-11-26,67.3,51.8,36.2,67.3,48.3,19.8,100,88,51,30.29,29.52,16,2,16,0.79
2013-11-27,67.3,54.4,43.3,67.3,54.4,43.3,100,100,100,29.58,29.41,8,1,11,0.68
2013-11-28,43.9,34.2,27.0,29.9,25.4,19.8,90,72,45,30.44,30.12,3,0,12,0.00
2013-11-29,52.9,38.9,27.3,35.0,29.1,25.5,97,71,35,30.53,30.42,3,1,11,0.00
2013-11-30,52.0,42.0,32.9,41.8,34.7,27.2,88,75,60,30.53,30.29,4,1,13,0.00
2013-12-1,56.9,48.2,39.3,48.2,43.3,36.8,100,83,68,30.29,29.58,5,0,7,0.68
2013-12-2,58.9,49.3,43.2,49.9,46.3,42.1,100,90,67,29.95,29.75,1,0,5,0.00
2013-12-3,58.9,52.3,40.3,52.1,47.4,39.2,100,84,67,29.93,29.81,5,0,8,0.01
2013-12-4,61.6,57.4,52.3,61.6,57.4,51.5,100,100,96,30.03,29.92,1,0,3,0.39
2013-12-5,71.8,62.7,53.5,67.3,61.1,53.5,100,95,82,30.09,29.99,4,0,7,0.00
2013-12-6,79.6,70.1,64.5,67.9,65.9,64.2,100,88,62,30.07,29.96,12,0,12,0.01
2013-12-7,68.6,54.6,44.9,67.1,53.3,41.6,100,95,86,30.35,29.98,17,2,17,0.18
2013-12-8,44.9,40.0,37.9,41.9,39.1,37.9,100,97,84,30.35,30.22,18,2,18,0.26
2013-12-9,53.9,46.3,38.0,53.9,46.3,38.0,100,100,100,30.22,29.99,3,0,5,0.02
2013-12-10,66.4,53.3,38.8,66.4,52.9,37.0,100,99,87,30.28,29.82,17,1,17,0.26
2013-12-11,51.9,39.9,30.9,36.9,31.9,27.5,94,75,42,30.41,30.24,8,0,8,0.00
2013-12-12,50.2,38.4,31.6,33.8,28.7,20.6,98,72,32,30.35,30.21,12,0,12,0.00
2013-12-13,54.4,39.0,27.2,35.4,28.2,21.4,95,69,29,30.36,30.22,7,0,7,0.00
2013-12-14,64.7,50.8,40.5,63.1,47.8,33.2,100,90,71,30.24,29.70,21,1,21,1.32
2013-12-15,54.8,49.5,38.9,54.8,47.6,36.7,100,94,75,30.03,29.65,7,0,7,0.01
2013-12-16,59.3,43.0,33.4,42.5,37.1,32.9,99,82,43,30.15,30.03,6,0,6,0.00
2013-12-17,65.6,49.9,38.3,42.5,38.3,35.0,95,68,38,30.10,29.90,12,0,12,0.00
2013-12-18,54.4,44.6,36.0,39.8,31.4,22.6,82,62,31,30.25,29.95,8,0,8,0.00
2013-12-19,63.9,45.0,32.7,39.9,32.4,25.8,91,66,26,30.30,30.19,8,0,8,0.00
2013-12-20,69.9,54.3,41.5,57.8,48.8,38.7,99,83,58,30.19,30.08,10,0,10,0.00
2013-12-21,75.8,63.9,52.3,67.2,61.1,51.8,100,91,73,30.11,30.00,8,0,8,0.00
2013-12-22,81.1,71.4,66.0,69.9,67.1,65.4,100,87,60,30.06,29.98,14,0,14,0.00
2013-12-23,77.0,68.2,51.9,70.8,66.3,51.7,100,94,74,30.06,29.93,12,1,12,0.49
2013-12-24,52.8,46.0,36.2,51.9,39.7,24.1,100,80,56,30.36,30.02,7,0,8,0.04
2013-12-25,45.4,35.2,29.0,27.8,22.2,16.2,72,60,40,30.48,30.32,11,1,11,0.00
2013-12-26,44.3,39.0,35.8,38.6,34.5,26.6,99,84,67,30.32,30.19,6,0,7,0.02
2013-12-27,52.6,40.2,31.5,36.2,32.0,25.9,97,75,45,30.38,30.28,7,0,7,0.00
2013-12-28,57.0,42.9,28.4,40.9,33.3,26.4,98,72,39,30.36,30.03,6,0,6,0.00
2013-12-29,67.4,57.4,48.0,67.4,55.7,41.0,100,94,67,30.03,29.65,20,1,20,1.37
2013-12-30,55.3,48.5,42.5,48.2,46.1,42.5,100,92,68,30.07,29.88,6,0,7,0.00
2013-12-31,54.4,46.7,38.9,46.5,39.8,33.0,100,79,46,30.30,30.03,6,0,6,0.00
2014-1-1,51.0,42.9,35.8,44.1,36.8,30.8,98,81,48,30.36,30.09,8,0,8,0.01
2014-1-2,50.4,47.0,44.5,50.4,47.0,44.1,100,100,98,30.09,29.54,7,0,7,0.55